Forside
METAR-TAF:

METAR-TAF

Lufthavne :

Chisholm-Hibbing Airport

Hibbing, Minnesota, USA

Breddekreds: 47-23-12N, længdekreds: 092-50-20W, højde: 412 m

Aktuelle vejr

Denne rapport blev lavet for 17 minutter siden, kl. 00:53 UTC
Vind stille
Temperatur -26°C
Fugtighed 83%
Tryk 1017 hPa
Sigt: 11.3 km
skyfri

METAR: KHIB 110053Z AUTO 00000KT 7SM CLR M26/M28 A3003 RMK AO2 SLP216 T12561283

Tid: 19:10 (01:10 UTC)

Vejrudsigter

Denne rapport blev lavet for 1 time og 40 minutter siden, kl. 23:30 UTC
Foreløbig gælder fra 11 på 00 UTC til 11 på 24 UTC
Vind 4 kt fra vest
Sigt: 10 km
Nogle få skyer i en højde af 25000 ft

TAF: KHIB 102330Z 1100/1124 26004KT P6SM FEW250

Vejrobservationer og prognoser fra mere end 4000 lufthavne (METAR og TAF).

De gule og røde prikker repræsenterer de meteorologiske stationer.

Flyt musen over at se navnet på stationen.

Så klik over at se vejr observationer og prognoser.

At skifte det kort: Klik på de grønne knapper med et sort kors for at zoome ind; på den grønne knap med en bindestreg for at zoome ud; eller på de grønne pile for tilstødende kort.


METAR-TAF: